createdAt,value
2023-04-21T00:00:30.368Z,7.70
2023-04-21T00:05:33.499Z,8.57
2023-04-21T00:10:37.252Z,8.20
2023-04-21T00:15:39.375Z,6.27
2023-04-21T00:20:41.711Z,6.43
2023-04-21T00:25:44.946Z,8.40
2023-04-21T00:30:47.155Z,8.23
2023-04-21T00:35:49.358Z,14.03
2023-04-21T00:40:53.121Z,10.70
2023-04-21T00:45:55.394Z,12.80
2023-04-21T00:50:57.832Z,8.80
2023-04-21T00:56:01.743Z,8.90
2023-04-21T01:01:05.687Z,11.63
2023-04-21T01:06:08.375Z,11.30
2023-04-21T01:11:15.641Z,10.10
2023-04-21T01:16:19.320Z,11.73
2023-04-21T01:21:22.097Z,12.27
2023-04-21T01:26:25.547Z,12.93
2023-04-21T01:31:27.657Z,11.17
2023-04-21T01:36:29.739Z,9.77
2023-04-21T01:41:33.476Z,12.10
2023-04-21T01:46:35.708Z,10.87
2023-04-21T01:51:37.970Z,9.77
2023-04-21T01:56:41.687Z,9.77
2023-04-21T02:01:43.965Z,11.30
2023-04-21T02:06:48.152Z,17.03
2023-04-21T02:11:51.624Z,15.80
2023-04-21T02:16:54.043Z,16.17
2023-04-21T02:21:56.404Z,12.50
2023-04-21T02:27:00.735Z,12.17
2023-04-21T02:32:17.920Z,15.30
2023-04-21T02:37:24.005Z,14.17
2023-04-21T02:42:27.264Z,15.80
2023-04-21T02:47:29.245Z,17.73
2023-04-21T02:52:31.632Z,19.50
2023-04-21T02:57:35.533Z,15.67
2023-04-21T03:02:38.087Z,15.90
2023-04-21T03:07:40.571Z,14.67
2023-04-21T03:12:44.212Z,16.40
2023-04-21T03:17:46.410Z,16.63
2023-04-21T03:22:48.844Z,18.83
2023-04-21T03:27:52.357Z,15.63
2023-04-21T03:32:55.768Z,15.43
2023-04-21T03:37:57.811Z,14.30
2023-04-21T03:43:01.003Z,13.83
2023-04-21T03:48:03.890Z,13.03
2023-04-21T03:53:06.695Z,13.80
2023-04-21T03:58:10.529Z,13.87
2023-04-21T04:03:12.860Z,14.07
2023-04-21T04:08:14.859Z,15.00
2023-04-21T04:13:18.836Z,19.10
2023-04-21T04:18:21.261Z,21.20
2023-04-21T04:23:23.500Z,20.63
2023-04-21T04:28:27.036Z,19.37
2023-04-21T04:33:29.404Z,16.00
2023-04-21T04:38:34.916Z,16.07
2023-04-21T04:43:39.297Z,12.13
2023-04-21T04:48:41.905Z,10.17
2023-04-21T04:53:44.159Z,8.37
2023-04-21T04:58:47.715Z,8.30
2023-04-21T05:03:50.014Z,7.60
2023-04-21T05:08:52.435Z,9.33
2023-04-21T05:13:56.148Z,10.87
2023-04-21T05:19:02.225Z,10.63
2023-04-21T05:24:04.457Z,9.43
2023-04-21T05:29:08.207Z,11.13
2023-04-21T05:34:10.456Z,18.10
2023-04-21T05:39:12.799Z,11.20
2023-04-21T05:44:19.059Z,11.03
2023-04-21T05:49:21.484Z,9.97
2023-04-21T05:54:23.959Z,13.73
2023-04-21T05:59:27.462Z,14.53
2023-04-21T06:04:30.066Z,14.57
2023-04-21T06:09:32.530Z,14.13
2023-04-21T06:14:36.136Z,12.87
2023-04-21T06:19:41.801Z,9.50
2023-04-21T06:24:44.054Z,8.50
2023-04-21T06:29:47.860Z,5.13
2023-04-21T06:34:50.142Z,3.87
2023-04-21T06:39:52.542Z,5.40
2023-04-21T06:44:57.157Z,5.77
2023-04-21T06:49:59.317Z,3.17
2023-04-21T06:55:01.504Z,3.93
2023-04-21T07:00:07.174Z,2.17
2023-04-21T07:05:09.581Z,2.40
2023-04-21T07:10:12.333Z,1.67
2023-04-21T07:15:17.457Z,3.00
2023-04-21T07:20:20.953Z,2.50
2023-04-21T07:25:22.847Z,5.27
2023-04-21T07:30:27.065Z,4.83
2023-04-21T07:35:29.444Z,3.80
2023-04-21T07:40:32.088Z,4.67
2023-04-21T07:45:36.028Z,3.17
2023-04-21T07:50:38.416Z,3.77
2023-04-21T07:55:40.720Z,4.40
2023-04-21T08:00:44.900Z,2.80
2023-04-21T08:05:47.415Z,5.00
2023-04-21T08:10:50.031Z,4.10
2023-04-21T08:15:53.672Z,2.80
2023-04-21T08:20:58.200Z,3.57
2023-04-21T08:26:00.598Z,3.90
2023-04-21T08:31:05.055Z,2.17
2023-04-21T08:36:18.280Z,1.50
2023-04-21T08:41:28.992Z,1.30
2023-04-21T08:46:34.107Z,2.97
2023-04-21T08:51:36.697Z,1.90
2023-04-21T08:56:40.771Z,5.60
2023-04-21T09:02:13.097Z,3.00
2023-04-21T09:07:32.771Z,1.50
2023-04-21T09:12:35.072Z,1.70
2023-04-21T09:17:38.866Z,4.65
2023-04-21T09:22:41.264Z,5.32
2023-04-21T09:27:44.020Z,4.88
2023-04-21T09:32:47.499Z,2.75
2023-04-21T09:37:49.637Z,1.90
2023-04-21T09:42:52.194Z,0.90
2023-04-21T09:47:58.362Z,1.27
2023-04-21T09:53:03.813Z,1.27
2023-04-21T09:58:09.913Z,1.45
2023-04-21T10:03:15.836Z,1.20
2023-04-21T10:08:19.163Z,0.20
2023-04-21T10:13:22.451Z,0.57
2023-04-21T10:18:26.478Z,1.55
2023-04-21T10:23:33.450Z,1.10
2023-04-21T10:28:47.399Z,0.68
2023-04-21T10:34:21.815Z,1.48
2023-04-21T10:39:28.115Z,0.90
2023-04-21T10:44:30.999Z,1.05
2023-04-21T10:49:42.164Z,0.85
2023-04-21T10:54:46.568Z,0.38
2023-04-21T10:59:49.766Z,1.40
2023-04-21T11:04:54.646Z,0.40
2023-04-21T11:10:01.031Z,0.85
2023-04-21T11:15:08.006Z,0.80
2023-04-21T11:20:12.313Z,0.38
2023-04-21T11:25:19.635Z,0.52
2023-04-21T11:30:21.930Z,0.50
2023-04-21T11:35:25.554Z,0.77
2023-04-21T11:40:27.716Z,0.30
2023-04-21T11:45:30.833Z,0.43
2023-04-21T11:50:37.257Z,0.40
2023-04-21T11:55:43.138Z,0.47
2023-04-21T12:00:47.091Z,1.17
2023-04-21T12:05:58.502Z,0.35
2023-04-21T12:11:01.268Z,2.78
2023-04-21T12:16:05.037Z,1.60
2023-04-21T12:21:08.766Z,1.75
2023-04-21T12:26:11.157Z,1.77
2023-04-21T12:31:14.261Z,0.85
2023-04-21T12:36:18.494Z,2.15
2023-04-21T12:41:21.646Z,1.42
2023-04-21T12:46:24.237Z,1.08
2023-04-21T12:51:28.565Z,0.80
2023-04-21T12:56:32.675Z,1.52
2023-04-21T13:01:35.099Z,4.78
2023-04-21T13:06:40.298Z,1.33
2023-04-21T13:11:42.275Z,0.65
2023-04-21T13:16:45.045Z,0.25
2023-04-21T13:21:50.484Z,0.30
2023-04-21T13:26:53.702Z,0.57
2023-04-21T13:31:56.025Z,2.13
2023-04-21T13:36:59.696Z,1.15
2023-04-21T13:42:02.708Z,0.20
2023-04-21T13:47:07.503Z,0.10
2023-04-21T13:52:12.552Z,0.20
2023-04-21T13:57:14.843Z,0.43
2023-04-21T14:02:17.200Z,0.33
2023-04-21T14:07:23.101Z,0.90
2023-04-21T14:12:27.274Z,1.40
2023-04-21T14:17:29.828Z,0.63
2023-04-21T14:22:33.424Z,0.20
2023-04-21T14:27:35.908Z,0.40
2023-04-21T14:32:38.500Z,1.03
2023-04-21T14:37:42.735Z,0.20
2023-04-21T14:42:45.224Z,0.30
2023-04-21T14:47:47.471Z,0.75
2023-04-21T14:52:51.022Z,0.43
2023-04-21T14:57:53.376Z,2.80
2023-04-21T15:02:55.720Z,0.50
2023-04-21T15:07:59.703Z,0.60
2023-04-21T15:13:01.897Z,0.50
2023-04-21T15:18:04.196Z,0.87
2023-04-21T15:23:07.593Z,0.57
2023-04-21T15:28:10.446Z,0.77
2023-04-21T15:33:12.733Z,0.70
2023-04-21T15:38:16.106Z,0.77
2023-04-21T15:43:18.319Z,0.70
2023-04-21T15:48:22.331Z,0.87
2023-04-21T15:53:25.945Z,2.27
2023-04-21T15:58:28.028Z,0.50
2023-04-21T16:03:30.146Z,0.45
2023-04-21T16:08:33.941Z,4.25
2023-04-21T16:13:36.701Z,2.03
2023-04-21T16:18:38.893Z,3.35
2023-04-21T16:23:42.773Z,2.15
2023-04-21T16:28:44.871Z,2.75
2023-04-21T16:33:47.234Z,3.95
2023-04-21T16:38:51.025Z,1.63
2023-04-21T16:43:53.175Z,1.92
2023-04-21T16:48:55.284Z,2.87
2023-04-21T16:53:59.133Z,2.37
2023-04-21T16:59:00.986Z,3.77
2023-04-21T17:04:03.752Z,3.23
2023-04-21T17:09:08.757Z,5.43
2023-04-21T17:14:10.951Z,5.63
2023-04-21T17:19:13.185Z,4.57
2023-04-21T17:24:16.580Z,6.23
2023-04-21T17:29:18.732Z,5.17
2023-04-21T17:34:21.106Z,4.53
2023-04-21T17:39:24.745Z,4.37
2023-04-21T17:44:27.431Z,6.53
2023-04-21T17:49:29.776Z,5.77
2023-04-21T17:54:33.916Z,6.80
2023-04-21T17:59:36.285Z,8.33
2023-04-21T18:04:38.458Z,5.87
2023-04-21T18:09:42.708Z,5.07
2023-04-21T18:14:45.501Z,3.87
2023-04-21T18:19:47.833Z,4.17
2023-04-21T18:24:52.197Z,6.00
2023-04-21T18:29:54.497Z,3.53
2023-04-21T18:34:56.523Z,7.27
2023-04-21T18:40:00.240Z,6.57
2023-04-21T18:45:10.877Z,4.70
2023-04-21T18:50:28.135Z,4.07
2023-04-21T18:56:09.305Z,5.30
2023-04-21T19:01:23.683Z,4.80
2023-04-21T19:06:33.553Z,3.87
2023-04-21T19:11:38.781Z,7.57
2023-04-21T19:16:44.883Z,2.33
2023-04-21T19:21:50.817Z,3.17
2023-04-21T19:26:57.463Z,4.87
2023-04-21T19:32:10.978Z,3.93
2023-04-21T19:37:30.664Z,8.63
2023-04-21T19:48:43.030Z,5.77
2023-04-21T19:54:10.089Z,7.00
2023-04-21T19:59:18.243Z,4.23
2023-04-21T20:04:21.461Z,4.23
2023-04-21T20:09:23.812Z,18.40
2023-04-21T20:14:28.545Z,4.13
2023-04-21T20:19:31.837Z,7.10
2023-04-21T20:24:38.088Z,5.10
2023-04-21T20:29:42.310Z,4.60
2023-04-21T20:34:44.620Z,5.57
2023-04-21T20:39:48.016Z,3.77
2023-04-21T20:44:52.156Z,4.87
2023-04-21T20:49:54.966Z,3.93
2023-04-21T20:54:57.485Z,2.00
2023-04-21T21:00:36.124Z,2.03
2023-04-21T21:05:41.112Z,3.47
2023-04-21T21:10:45.461Z,2.63
2023-04-21T21:15:53.731Z,4.10
2023-04-21T21:21:02.818Z,6.40
2023-04-21T21:26:11.165Z,3.17
2023-04-21T21:31:14.816Z,5.73
2023-04-21T21:36:17.225Z,8.80
2023-04-21T21:41:21.409Z,4.73
2023-04-21T21:46:24.898Z,2.33
2023-04-21T21:51:29.032Z,2.33
2023-04-21T21:56:31.244Z,1.80
2023-04-21T22:01:35.101Z,5.17
2023-04-21T22:06:38.462Z,2.23
2023-04-21T22:11:40.940Z,1.67
2023-04-21T22:16:45.751Z,2.47
2023-04-21T22:21:47.621Z,3.17
2023-04-21T22:26:49.731Z,0.90
2023-04-21T22:31:52.963Z,1.43
2023-04-21T22:36:55.016Z,0.80
2023-04-21T22:41:57.576Z,1.63
2023-04-21T22:47:01.284Z,2.80
2023-04-21T22:52:04.128Z,1.43
2023-04-21T22:57:07.078Z,1.70
2023-04-21T23:02:10.764Z,3.03
2023-04-21T23:07:13.086Z,2.20
2023-04-21T23:12:15.557Z,2.40
2023-04-21T23:17:19.037Z,2.70
2023-04-21T23:22:22.518Z,1.40
2023-04-21T23:27:26.304Z,0.90
2023-04-21T23:32:29.840Z,1.67
2023-04-21T23:37:32.002Z,0.70
2023-04-21T23:42:34.564Z,2.10
2023-04-21T23:47:37.912Z,0.70
2023-04-21T23:52:42.296Z,1.07
2023-04-21T23:57:46.990Z,1.60
